createdAt,value
2023-01-12T00:02:14.897Z,20.63
2023-01-12T00:04:42.762Z,19.42
2023-01-12T00:07:13.565Z,19.83
2023-01-12T00:09:41.543Z,19.48
2023-01-12T00:12:11.751Z,20.63
2023-01-12T00:14:39.873Z,20.73
2023-01-12T00:17:09.211Z,20.58
2023-01-12T00:19:38.903Z,20.67
2023-01-12T00:22:06.941Z,21.15
2023-01-12T00:25:01.028Z,22.95
2023-01-12T00:27:28.961Z,22.10
2023-01-12T00:29:56.707Z,20.77
2023-01-12T00:32:24.643Z,22.02
2023-01-12T00:34:52.330Z,22.48
2023-01-12T00:37:20.229Z,21.27
2023-01-12T00:40:01.398Z,22.20
2023-01-12T00:42:48.853Z,21.60
2023-01-12T00:45:22.385Z,23.80
2023-01-12T00:50:19.674Z,21.38
2023-01-12T00:52:47.916Z,22.73
2023-01-12T00:55:15.594Z,22.27
2023-01-12T00:57:43.652Z,23.17
2023-01-12T01:00:11.790Z,22.10
2023-01-12T01:02:39.953Z,22.83
2023-01-12T01:05:08.288Z,22.98
2023-01-12T01:07:36.151Z,23.13
2023-01-12T01:10:03.958Z,22.17
2023-01-12T01:12:32.895Z,22.77
2023-01-12T01:15:00.545Z,23.55
2023-01-12T01:17:28.907Z,22.75
2023-01-12T01:19:56.595Z,21.77
2023-01-12T01:22:24.543Z,23.35
2023-01-12T01:24:52.179Z,23.65
2023-01-12T01:27:20.190Z,21.05
2023-01-12T01:29:47.963Z,22.55
2023-01-12T01:32:15.833Z,23.25
2023-01-12T01:34:44.011Z,22.98
2023-01-12T01:37:13.068Z,23.33
2023-01-12T01:39:40.758Z,23.88
2023-01-12T01:42:27.911Z,24.00
2023-01-12T01:44:59.497Z,23.48
2023-01-12T01:47:40.881Z,22.73
2023-01-12T01:50:19.922Z,22.92
2023-01-12T01:52:53.926Z,21.50
2023-01-12T01:55:26.372Z,24.98
2023-01-12T01:58:16.975Z,24.98
2023-01-12T02:00:45.014Z,23.75
2023-01-12T02:03:15.926Z,23.83
2023-01-12T02:05:47.164Z,24.33
2023-01-12T02:08:46.715Z,23.17
2023-01-12T02:11:34.450Z,25.20
2023-01-12T02:14:21.195Z,24.70
2023-01-12T02:17:19.711Z,25.55
2023-01-12T02:20:08.303Z,25.38
2023-01-12T02:23:04.398Z,23.65
2023-01-12T02:26:05.694Z,24.27
2023-01-12T02:29:00.618Z,24.45
2023-01-12T02:31:47.293Z,25.30
2023-01-12T02:34:41.662Z,26.55
2023-01-12T02:37:37.259Z,24.48
2023-01-12T02:40:21.717Z,24.90
2023-01-12T02:42:54.960Z,24.13
2023-01-12T02:45:30.995Z,24.30
2023-01-12T02:48:03.934Z,25.08
2023-01-12T02:50:40.153Z,24.48
2023-01-12T02:53:17.458Z,25.55
2023-01-12T02:55:46.946Z,25.65
2023-01-12T02:58:18.701Z,25.23
2023-01-12T03:00:50.347Z,26.77
2023-01-12T03:03:19.440Z,26.92
2023-01-12T03:05:47.635Z,26.27
2023-01-12T03:08:23.672Z,26.65
2023-01-12T03:10:59.260Z,25.65
2023-01-12T03:13:29.964Z,25.58
2023-01-12T03:16:00.264Z,26.63
2023-01-12T03:18:34.378Z,26.58
2023-01-12T03:21:09.128Z,24.92
2023-01-12T03:23:47.683Z,25.02
2023-01-12T03:26:19.387Z,24.50
2023-01-12T03:28:53.465Z,24.60
2023-01-12T03:33:51.136Z,25.33
2023-01-12T03:36:42.411Z,26.10
2023-01-12T03:39:54.010Z,25.95
2023-01-12T03:43:12.707Z,25.00
2023-01-12T03:45:45.358Z,24.15
2023-01-12T03:48:16.207Z,24.75
2023-01-12T03:50:52.955Z,26.13
2023-01-12T03:53:23.410Z,26.58
2023-01-12T03:55:56.341Z,27.10
2023-01-12T03:58:25.423Z,26.13
2023-01-12T04:00:53.578Z,26.50
2023-01-12T04:03:21.411Z,25.90
2023-01-12T04:05:49.413Z,27.85
2023-01-12T04:08:17.580Z,26.98
2023-01-12T04:10:45.507Z,25.52
2023-01-12T04:13:13.683Z,26.00
2023-01-12T04:15:44.589Z,26.75
2023-01-12T04:18:13.408Z,26.00
2023-01-12T04:20:41.901Z,25.60
2023-01-12T04:23:09.552Z,25.48
2023-01-12T04:25:37.490Z,24.95
2023-01-12T04:28:05.719Z,26.27
2023-01-12T04:30:34.862Z,25.70
2023-01-12T04:33:09.242Z,24.77
2023-01-12T04:35:37.155Z,24.60
2023-01-12T04:38:09.403Z,25.83
2023-01-12T04:40:37.394Z,25.65
2023-01-12T04:43:07.986Z,25.60
2023-01-12T04:45:42.114Z,25.85
2023-01-12T04:48:12.545Z,28.23
2023-01-12T04:50:41.551Z,25.38
2023-01-12T04:53:11.618Z,25.98
2023-01-12T04:55:41.628Z,26.98
2023-01-12T04:58:09.932Z,25.23
2023-01-12T05:00:37.888Z,27.02
2023-01-12T05:03:05.632Z,25.77
2023-01-12T05:05:34.078Z,27.02
2023-01-12T05:08:21.814Z,25.77
2023-01-12T05:10:51.271Z,26.30
2023-01-12T05:13:19.313Z,25.85
2023-01-12T05:15:47.309Z,26.85
2023-01-12T05:18:15.847Z,27.60
2023-01-12T05:20:43.866Z,26.25
2023-01-12T05:23:11.623Z,25.05
2023-01-12T05:25:39.592Z,25.23
2023-01-12T05:28:07.298Z,27.15
2023-01-12T05:30:35.315Z,25.15
2023-01-12T05:33:03.016Z,25.67
2023-01-12T05:35:30.899Z,25.77
2023-01-12T05:37:58.574Z,24.83
2023-01-12T05:40:26.630Z,25.38
2023-01-12T05:43:12.938Z,25.95
2023-01-12T05:45:41.185Z,26.17
2023-01-12T05:48:09.666Z,25.33
2023-01-12T05:50:37.694Z,26.15
2023-01-12T05:53:09.564Z,25.05
2023-01-12T05:55:38.400Z,25.45
2023-01-12T05:58:06.214Z,26.20
2023-01-12T06:00:34.132Z,25.25
2023-01-12T06:03:03.268Z,26.13
2023-01-12T06:05:31.233Z,25.23
2023-01-12T06:08:00.692Z,24.88
2023-01-12T06:10:29.120Z,24.77
2023-01-12T06:13:15.414Z,25.95
2023-01-12T06:15:43.295Z,25.20
2023-01-12T06:18:11.396Z,26.23
2023-01-12T06:20:39.519Z,23.23
2023-01-12T06:23:09.437Z,25.23
2023-01-12T06:25:37.394Z,25.90
2023-01-12T06:28:06.542Z,24.15
2023-01-12T06:30:34.418Z,23.08
2023-01-12T06:33:03.182Z,24.45
2023-01-12T06:35:31.154Z,24.58
2023-01-12T06:37:58.859Z,24.35
2023-01-12T06:40:26.889Z,23.88
2023-01-12T06:42:54.583Z,23.73
2023-01-12T06:45:22.504Z,25.42
2023-01-12T06:47:52.198Z,26.75
2023-01-12T06:50:20.403Z,23.63
2023-01-12T06:52:48.071Z,23.70
2023-01-12T06:55:16.114Z,25.75
2023-01-12T06:57:43.894Z,24.75
2023-01-12T07:00:13.321Z,25.05
2023-01-12T07:02:41.086Z,23.73
2023-01-12T07:05:09.467Z,24.83
2023-01-12T07:07:40.701Z,25.27
2023-01-12T07:10:10.051Z,24.50
2023-01-12T07:12:37.878Z,26.08
2023-01-12T07:15:06.303Z,24.55
2023-01-12T07:17:34.112Z,26.02
2023-01-12T07:20:02.051Z,25.48
2023-01-12T07:22:30.420Z,23.75
2023-01-12T07:24:58.443Z,24.15
2023-01-12T07:27:26.073Z,25.30
2023-01-12T07:29:54.105Z,25.08
2023-01-12T07:32:24.941Z,24.55
2023-01-12T07:34:53.007Z,24.05
2023-01-12T07:37:20.693Z,24.17
2023-01-12T07:39:48.652Z,24.00
2023-01-12T07:42:25.529Z,23.50
2023-01-12T07:44:53.551Z,23.40
2023-01-12T07:47:21.719Z,24.33
2023-01-12T07:49:50.238Z,22.95
2023-01-12T07:52:17.903Z,24.63
2023-01-12T07:54:45.883Z,23.55
2023-01-12T07:57:13.604Z,25.20
2023-01-12T07:59:41.599Z,23.70
2023-01-12T08:02:16.547Z,23.52
2023-01-12T08:04:45.804Z,22.83
2023-01-12T08:07:14.933Z,23.60
2023-01-12T08:09:42.950Z,23.95
2023-01-12T08:12:10.661Z,22.33
2023-01-12T08:14:40.477Z,23.55
2023-01-12T08:17:19.026Z,23.65
2023-01-12T08:19:56.959Z,23.40
2023-01-12T08:22:31.690Z,23.77
2023-01-12T08:25:07.368Z,23.15
2023-01-12T08:27:39.045Z,23.65
2023-01-12T08:30:08.761Z,23.15
2023-01-12T08:32:37.842Z,23.00
2023-01-12T08:35:06.325Z,23.33
2023-01-12T08:37:35.684Z,23.42
2023-01-12T08:40:05.760Z,24.55
2023-01-12T08:42:33.458Z,22.77
2023-01-12T08:45:01.514Z,23.05
2023-01-12T08:47:30.584Z,22.27
2023-01-12T08:50:00.365Z,22.05
2023-01-12T08:52:29.622Z,22.67
2023-01-12T08:54:57.687Z,23.33
2023-01-12T08:57:25.382Z,21.88
2023-01-12T08:59:53.396Z,21.52
2023-01-12T09:02:21.315Z,21.08
2023-01-12T09:04:49.607Z,20.13
2023-01-12T09:07:17.435Z,21.90
2023-01-12T09:09:45.381Z,21.52
2023-01-12T09:12:13.071Z,22.70
2023-01-12T09:14:41.043Z,21.15
2023-01-12T09:17:08.831Z,24.30
2023-01-12T09:19:36.823Z,24.30
2023-01-12T09:22:04.459Z,22.55
2023-01-12T09:24:32.386Z,22.08
2023-01-12T09:27:00.190Z,21.95
2023-01-12T09:29:28.152Z,21.02
2023-01-12T09:31:55.897Z,18.48
2023-01-12T09:34:23.965Z,17.25
2023-01-12T09:36:52.533Z,16.92
2023-01-12T09:39:27.749Z,16.90
2023-01-12T09:42:15.217Z,14.57
2023-01-12T09:45:05.012Z,15.35
2023-01-12T09:47:56.326Z,14.48
2023-01-12T09:50:29.629Z,15.00
2023-01-12T09:53:03.022Z,14.25
2023-01-12T09:55:47.168Z,14.50
2023-01-12T09:58:28.182Z,13.73
2023-01-12T10:00:58.506Z,14.10
2023-01-12T10:03:38.431Z,13.48
2023-01-12T10:06:09.368Z,13.30
2023-01-12T10:09:00.679Z,13.02
2023-01-12T10:12:06.343Z,14.35
2023-01-12T10:14:34.482Z,13.85
2023-01-12T10:17:11.593Z,13.02
2023-01-12T10:20:04.442Z,12.85
2023-01-12T10:22:54.716Z,13.63
2023-01-12T10:25:22.518Z,12.30
2023-01-12T10:27:53.250Z,14.13
2023-01-12T10:30:40.935Z,12.30
2023-01-12T10:33:19.274Z,12.48
2023-01-12T10:36:08.638Z,13.60
2023-01-12T10:38:57.803Z,11.23
2023-01-12T10:41:26.577Z,12.45
2023-01-12T10:44:00.369Z,12.52
2023-01-12T10:46:31.782Z,12.07
2023-01-12T10:49:22.284Z,10.65
2023-01-12T10:52:02.029Z,11.35
2023-01-12T10:54:31.649Z,11.30
2023-01-12T10:57:05.923Z,10.95
2023-01-12T10:59:38.486Z,11.40
2023-01-12T11:02:09.342Z,11.25
2023-01-12T11:04:52.498Z,10.55
2023-01-12T11:07:26.557Z,10.57
2023-01-12T11:09:55.506Z,9.95
2023-01-12T11:12:30.047Z,11.13
2023-01-12T11:15:17.998Z,10.35
2023-01-12T11:18:04.820Z,9.80
2023-01-12T11:21:01.491Z,10.57
2023-01-12T11:24:02.976Z,10.23
2023-01-12T11:26:46.243Z,9.77
2023-01-12T11:29:34.078Z,11.20
2023-01-12T11:32:27.183Z,10.20
2023-01-12T11:35:04.927Z,9.85
2023-01-12T11:37:38.352Z,10.32
2023-01-12T11:40:28.442Z,9.25
2023-01-12T11:43:21.994Z,9.00
2023-01-12T11:45:55.036Z,10.68
2023-01-12T11:49:08.069Z,10.05
2023-01-12T11:51:35.961Z,10.05
2023-01-12T11:54:06.246Z,10.20
2023-01-12T11:56:52.586Z,10.00
2023-01-12T11:59:41.858Z,10.95
2023-01-12T12:02:46.158Z,10.05
2023-01-12T12:05:52.066Z,10.18
2023-01-12T12:08:29.203Z,9.48
2023-01-12T12:11:31.992Z,8.60
2023-01-12T12:14:29.591Z,7.47
2023-01-12T12:17:05.543Z,8.43
2023-01-12T12:19:41.913Z,8.07
2023-01-12T12:22:41.332Z,7.57
2023-01-12T12:25:34.317Z,7.68
2023-01-12T12:28:26.970Z,7.32
2023-01-12T12:30:57.900Z,7.10
2023-01-12T12:34:04.559Z,7.28
2023-01-12T12:36:50.259Z,6.78
2023-01-12T12:39:56.497Z,7.05
2023-01-12T12:43:02.916Z,5.90
2023-01-12T12:45:44.264Z,6.22
2023-01-12T12:48:29.607Z,6.80
2023-01-12T12:51:10.072Z,6.70
2023-01-12T12:53:41.769Z,7.00
2023-01-12T12:56:14.399Z,7.15
2023-01-12T12:58:46.348Z,6.95
2023-01-12T13:01:23.479Z,7.43
2023-01-12T13:04:05.103Z,7.35
2023-01-12T13:07:03.042Z,7.45
2023-01-12T13:09:30.880Z,7.07
2023-01-12T13:11:59.223Z,8.50
2023-01-12T13:14:34.604Z,8.50
2023-01-12T13:17:21.122Z,8.27
2023-01-12T13:19:51.903Z,7.55
2023-01-12T13:22:42.308Z,7.82
2023-01-12T13:25:26.500Z,7.68
2023-01-12T13:28:01.166Z,7.55
2023-01-12T13:30:29.606Z,7.40
2023-01-12T13:33:15.713Z,7.65
2023-01-12T13:35:44.573Z,7.65
2023-01-12T13:38:43.825Z,6.97
2023-01-12T13:41:14.979Z,6.95
2023-01-12T13:43:48.884Z,7.35
2023-01-12T13:46:26.183Z,7.38
2023-01-12T13:48:56.502Z,7.90
2023-01-12T13:51:34.215Z,7.75
2023-01-12T13:54:12.646Z,7.25
2023-01-12T13:56:41.443Z,7.00
2023-01-12T13:59:17.996Z,6.30
2023-01-12T14:01:48.492Z,7.25
2023-01-12T14:04:21.483Z,6.70
2023-01-12T14:07:07.922Z,6.10
2023-01-12T14:09:55.361Z,6.80
2023-01-12T14:12:59.201Z,6.30
2023-01-12T14:16:02.545Z,6.40
2023-01-12T14:18:43.214Z,6.47
2023-01-12T14:21:32.941Z,6.40
2023-01-12T14:24:30.195Z,5.60
2023-01-12T14:26:58.194Z,6.10
2023-01-12T14:29:26.000Z,6.07
2023-01-12T14:31:54.890Z,6.30
2023-01-12T14:34:34.769Z,6.32
2023-01-12T14:37:07.819Z,5.50
2023-01-12T14:39:41.213Z,6.25
2023-01-12T14:42:53.021Z,5.57
2023-01-12T14:45:46.454Z,6.50
2023-01-12T14:48:29.304Z,5.72
2023-01-12T14:51:28.538Z,6.43
2023-01-12T14:53:59.848Z,5.90
2023-01-12T14:56:33.907Z,5.82
2023-01-12T14:59:20.640Z,6.70
2023-01-12T15:01:48.755Z,6.35
2023-01-12T15:04:23.797Z,5.95
2023-01-12T15:07:21.455Z,6.53
2023-01-12T15:10:08.788Z,5.72
2023-01-12T15:12:44.657Z,6.13
2023-01-12T15:15:18.175Z,6.18
2023-01-12T15:18:05.620Z,6.35
2023-01-12T15:21:03.870Z,6.45
2023-01-12T15:23:55.435Z,6.90
2023-01-12T15:26:23.586Z,7.45
2023-01-12T15:28:51.535Z,7.78
2023-01-12T15:31:37.502Z,8.10
2023-01-12T15:34:06.404Z,7.85
2023-01-12T15:36:34.364Z,7.63
2023-01-12T15:39:02.003Z,7.65
2023-01-12T15:41:50.468Z,7.90
2023-01-12T15:44:20.319Z,8.43
2023-01-12T15:46:48.702Z,8.00
2023-01-12T15:49:16.604Z,8.32
2023-01-12T15:51:47.558Z,8.10
2023-01-12T15:54:18.095Z,9.43
2023-01-12T15:56:46.615Z,8.95
2023-01-12T15:59:14.701Z,9.18
2023-01-12T16:01:45.903Z,9.80
2023-01-12T16:04:41.404Z,10.40
2023-01-12T16:07:05.413Z,11.07
2023-01-12T16:09:33.132Z,12.02
2023-01-12T16:12:01.043Z,11.00
2023-01-12T16:14:29.042Z,12.25
2023-01-12T16:16:57.019Z,12.57
2023-01-12T16:19:25.008Z,12.77
2023-01-12T16:21:55.096Z,13.20
2023-01-12T16:24:26.585Z,13.23
2023-01-12T16:26:54.903Z,14.10
2023-01-12T16:29:23.946Z,11.98
2023-01-12T16:31:52.653Z,11.00
2023-01-12T16:34:23.486Z,14.95
2023-01-12T16:36:51.660Z,14.98
2023-01-12T16:39:19.452Z,15.95
2023-01-12T16:41:48.147Z,14.50
2023-01-12T16:44:15.865Z,15.95
2023-01-12T16:46:43.863Z,14.80
2023-01-12T16:49:11.477Z,15.02
2023-01-12T16:51:39.635Z,15.95
2023-01-12T16:54:07.379Z,16.08
2023-01-12T16:56:35.312Z,15.40
2023-01-12T16:59:03.113Z,16.42
2023-01-12T17:01:31.305Z,15.98
2023-01-12T17:04:00.464Z,16.38
2023-01-12T17:06:29.685Z,15.90
2023-01-12T17:09:01.139Z,17.05
2023-01-12T17:11:30.994Z,16.92
2023-01-12T17:13:59.266Z,17.13
2023-01-12T17:16:29.458Z,18.17
2023-01-12T17:18:57.266Z,16.88
2023-01-12T17:21:25.427Z,17.63
2023-01-12T17:23:53.297Z,17.65
2023-01-12T17:26:21.209Z,18.08
2023-01-12T17:28:48.959Z,18.45
2023-01-12T17:31:18.692Z,18.73
2023-01-12T17:33:46.791Z,19.48
2023-01-12T17:36:14.807Z,18.75
2023-01-12T17:38:42.569Z,18.60
2023-01-12T17:41:34.941Z,17.65
2023-01-12T17:44:04.795Z,17.88
2023-01-12T17:46:33.513Z,18.25
2023-01-12T17:49:04.020Z,17.10
2023-01-12T17:51:32.582Z,19.60
2023-01-12T17:54:01.997Z,18.60
2023-01-12T17:56:32.896Z,19.73
2023-01-12T17:59:02.015Z,19.27
2023-01-12T18:01:32.837Z,18.80
2023-01-12T18:04:01.303Z,19.83
2023-01-12T18:06:29.821Z,18.25
2023-01-12T18:08:59.752Z,19.52
2023-01-12T18:11:28.774Z,18.45
2023-01-12T18:13:56.892Z,19.90
2023-01-12T18:16:25.383Z,20.52
2023-01-12T18:18:54.486Z,20.95
2023-01-12T18:21:25.135Z,18.88
2023-01-12T18:23:53.761Z,20.15
2023-01-12T18:26:25.385Z,19.52
2023-01-12T18:28:54.977Z,19.35
2023-01-12T18:31:26.416Z,19.63
2023-01-12T18:34:06.108Z,20.95
2023-01-12T18:36:39.412Z,21.33
2023-01-12T18:39:11.015Z,22.70
2023-01-12T18:41:57.641Z,22.33
2023-01-12T18:44:26.336Z,21.98
2023-01-12T18:47:15.709Z,22.30
2023-01-12T18:49:49.000Z,22.23
2023-01-12T18:52:36.838Z,22.27
2023-01-12T18:55:05.715Z,20.88
2023-01-12T18:57:33.999Z,23.55
2023-01-12T19:00:16.848Z,22.58
2023-01-12T19:02:45.421Z,22.90
2023-01-12T19:05:14.887Z,21.08
2023-01-12T19:07:58.249Z,23.27
2023-01-12T19:10:27.543Z,22.17
2023-01-12T19:13:14.436Z,21.65
2023-01-12T19:16:01.269Z,22.95
2023-01-12T19:18:29.429Z,20.13
2023-01-12T19:21:23.217Z,23.15
2023-01-12T19:24:09.744Z,22.08
2023-01-12T19:26:56.079Z,22.83
2023-01-12T19:29:24.107Z,23.30
2023-01-12T19:31:52.013Z,21.95
2023-01-12T19:34:19.943Z,21.92
2023-01-12T19:36:47.689Z,22.60
2023-01-12T19:39:21.459Z,21.67
2023-01-12T19:42:07.705Z,23.02
2023-01-12T19:44:36.687Z,21.85
2023-01-12T19:47:04.299Z,20.10
2023-01-12T19:49:32.204Z,22.02
2023-01-12T19:51:59.977Z,20.92
2023-01-12T19:54:29.094Z,20.77
2023-01-12T19:56:56.704Z,20.65
2023-01-12T19:59:24.732Z,20.55
2023-01-12T20:01:54.000Z,20.67
2023-01-12T20:04:22.028Z,20.88
2023-01-12T20:06:53.159Z,20.73
2023-01-12T20:09:21.168Z,18.95
2023-01-12T20:11:54.397Z,18.75
2023-01-12T20:14:22.547Z,20.17
2023-01-12T20:16:50.405Z,18.70
2023-01-12T20:19:19.510Z,18.52
2023-01-12T20:21:48.500Z,17.55
2023-01-12T20:24:17.008Z,18.15
2023-01-12T20:26:44.766Z,17.27
2023-01-12T20:29:12.745Z,17.50
2023-01-12T20:31:40.618Z,17.17
2023-01-12T20:34:08.681Z,17.30
2023-01-12T20:36:38.707Z,17.02
2023-01-12T20:39:11.068Z,17.30
2023-01-12T20:41:40.046Z,17.55
2023-01-12T20:44:12.183Z,17.65
2023-01-12T20:46:39.869Z,17.27
2023-01-12T20:49:07.812Z,17.27
2023-01-12T20:51:35.515Z,17.58
2023-01-12T20:54:05.494Z,17.02
2023-01-12T20:56:33.390Z,16.08
2023-01-12T20:59:01.429Z,16.65
2023-01-12T21:01:29.534Z,15.88
2023-01-12T21:03:57.504Z,17.05
2023-01-12T21:06:25.213Z,16.85
2023-01-12T21:08:53.236Z,15.85
2023-01-12T21:11:21.438Z,16.35
2023-01-12T21:13:49.522Z,16.35
2023-01-12T21:16:19.030Z,16.15
2023-01-12T21:18:47.202Z,15.63
2023-01-12T21:21:15.206Z,15.73
2023-01-12T21:23:43.259Z,15.63
2023-01-12T21:26:11.233Z,13.93
2023-01-12T21:28:40.441Z,15.43
2023-01-12T21:31:11.857Z,15.38
2023-01-12T21:33:40.009Z,14.63
2023-01-12T21:36:08.115Z,15.45
2023-01-12T21:38:36.125Z,16.02
2023-01-12T21:41:05.665Z,15.18
2023-01-12T21:43:34.363Z,15.70
2023-01-12T21:46:07.241Z,15.70
2023-01-12T21:48:35.582Z,14.80
2023-01-12T21:51:05.229Z,14.98
2023-01-12T21:53:33.497Z,14.48
2023-01-12T21:56:03.066Z,14.90
2023-01-12T21:58:33.048Z,14.45
2023-01-12T22:01:06.418Z,13.82
2023-01-12T22:03:34.463Z,13.63
2023-01-12T22:06:06.215Z,13.68
2023-01-12T22:08:38.220Z,13.77
2023-01-12T22:11:12.249Z,12.43
2023-01-12T22:13:40.911Z,12.63
2023-01-12T22:16:14.555Z,11.98
2023-01-12T22:21:16.421Z,11.15
2023-01-12T22:23:44.619Z,12.32
2023-01-12T22:26:14.623Z,11.35
2023-01-12T22:28:44.294Z,11.82
2023-01-12T22:31:14.557Z,12.23
2023-01-12T22:33:48.153Z,11.95
2023-01-12T22:36:16.146Z,11.38
2023-01-12T22:38:44.115Z,11.75
2023-01-12T22:41:13.204Z,11.27
2023-01-12T22:43:41.583Z,11.63
2023-01-12T22:46:17.525Z,12.52
2023-01-12T22:48:49.808Z,12.18
2023-01-12T22:51:20.311Z,12.32
2023-01-12T22:53:48.791Z,11.63
2023-01-12T22:56:17.110Z,11.00
2023-01-12T22:58:53.319Z,11.48
2023-01-12T23:01:22.413Z,11.18
2023-01-12T23:03:54.625Z,11.23
2023-01-12T23:06:23.563Z,11.07
2023-01-12T23:08:52.030Z,11.40
2023-01-12T23:11:22.958Z,11.93
2023-01-12T23:13:51.454Z,10.90
2023-01-12T23:16:20.340Z,12.13
2023-01-12T23:18:50.053Z,11.48
2023-01-12T23:21:20.191Z,11.70
2023-01-12T23:23:51.118Z,11.38
2023-01-12T23:26:22.745Z,11.40
2023-01-12T23:28:53.514Z,10.80
2023-01-12T23:31:23.633Z,10.57
2023-01-12T23:33:52.300Z,11.20
2023-01-12T23:36:23.133Z,12.05
2023-01-12T23:38:55.767Z,11.98
2023-01-12T23:41:25.576Z,11.30
2023-01-12T23:43:56.391Z,11.13
2023-01-12T23:46:24.502Z,10.68
2023-01-12T23:48:55.185Z,10.80
2023-01-12T23:51:24.663Z,10.40
2023-01-12T23:54:00.005Z,11.07
2023-01-12T23:56:30.629Z,11.40
2023-01-12T23:58:58.977Z,11.63
